Latest Weather Observations for Casino

IDN60801

Issued at 7:03 am EDT Wednesday 10 February 2016 (issued every 30 minutes, with the page automatically refreshed every 10 minutes)

About weather observations | Map of weather stations | Latest weather observations for NSW | Other Formats
Station Details ID: 058208 Name: CASINO AIRPORT AWS Lat: -28.88 Lon: 153.06 Height: 20.9 m
Data from the previous 72 hours. | See also: Recent months at Casino
Date/Time
EDT
Temp
°C
App
Temp
°C
Dew
Point
Rel
Hum
%
Delta-T
°C
Wind Press
QNH
hPa
Press
MSL
hPa
Rain
since 9 am
mm
Dir
 
Spd
km/h
Gust
km/h
Spd
kts
Gust
kts
10/07:00am 19.3 20.2 16.5 84 1.7 S 7 13 4 7 1014.5 1014.3 0.0
10/06:30am 19.0 19.8 16.4 85 1.6 SSW 7 11 4 6 1014.2 1014.0 0.0
10/06:00am 19.3 20.4 16.7 85 1.6 S 6 9 3 5 1014.2 1014.0 0.0
10/05:30am 19.4 20.0 16.8 85 1.6 SSW 9 13 5 7 1014.2 1014.0 0.0
10/05:00am 19.6 20.3 17.0 85 1.6 SSW 9 17 5 9 1014.0 1013.8 0.0
10/04:30am 18.7 19.2 16.5 87 1.3 SSW 9 15 5 8 1013.9 1013.7 0.0
10/04:00am 18.6 19.4 16.4 87 1.3 SSW 7 11 4 6 1014.0 1013.8 0.0
10/03:30am 18.9 19.5 16.9 88 1.2 SW 9 11 5 6 1014.1 1013.9 0.0
10/03:00am 18.8 19.8 16.8 88 1.2 SW 7 11 4 6 1014.3 1014.1 0.0
10/02:30am 18.7 19.3 16.7 88 1.2 SW 9 11 5 6 1014.6 1014.4 0.0
10/02:00am 19.1 20.1 16.9 87 1.3 SSW 7 9 4 5 1014.9 1014.7 0.0
10/01:30am 19.4 20.1 17.0 86 1.5 SW 9 11 5 6 1015.3 1015.1 0.0
10/01:00am 19.4 20.5 17.0 86 1.5 SSW 7 9 4 5 1015.5 1015.3 0.0
10/12:30am 19.2 20.3 17.0 87 1.3 SSW 7 9 4 5 1016.0 1015.9 0.0
10/12:00am 19.2 20.5 17.0 87 1.3 SSW 6 7 3 4 1016.5 1016.4 0.0
 
Date/Time
EDT
Temp
°C
App
Temp
°C
Dew
Point
Rel
Hum
%
Delta-T
°C
Wind Press
QNH
hPa
Press
MSL
hPa
Rain
since 9 am
mm
Dir
 
Spd
km/h
Gust
km/h
Spd
kts
Gust
kts
09/11:30pm 19.3 20.2 16.7 85 1.6 SSW 7 9 4 5 1016.9 1016.8 0.0
09/11:00pm 19.2 20.0 16.4 84 1.7 S 7 7 4 4 1017.1 1017.0 0.0
09/10:30pm 20.0 20.9 16.6 81 2.1 S 7 9 4 5 1017.3 1017.2 0.0
09/10:00pm 21.0 21.8 17.4 80 2.2 S 9 11 5 6 1017.2 1017.1 0.0
09/09:30pm 20.8 21.9 17.2 80 2.2 S 7 9 4 5 1017.1 1017.0 0.0
09/09:00pm 20.6 21.1 16.6 78 2.4 SE 9 11 5 6 1016.9 1016.8 0.0
09/08:30pm 21.9 22.2 17.1 74 2.9 SE 11 20 6 11 1016.9 1016.8 0.0
09/08:00pm 22.8 22.2 17.5 72 3.3 SE 17 26 9 14 1016.6 1016.5 0.0
09/07:30pm 23.3 22.0 16.8 67 4.0 SE 19 30 10 16 1016.4 1016.3 0.0
09/07:00pm 24.2 21.5 16.5 62 4.7 SE 26 39 14 21 1016.2 1016.1 0.0
09/06:30pm 25.1 22.8 15.7 56 5.7 SE 22 35 12 19 1016.0 1015.9 0.0
09/06:00pm 25.8 22.9 16.1 55 5.9 SE 26 44 14 24 1015.9 1015.8 0.0
09/05:30pm 25.9 22.9 15.9 54 6.1 SE 26 41 14 22 1015.7 1015.5 0.0
09/05:00pm 26.7 23.9 15.4 50 6.9 SE 24 35 13 19 1015.5 1015.3 0.0
09/04:30pm 27.7 25.3 17.3 53 6.5 SE 26 41 14 22 1015.6 1015.4 0.0
09/04:00pm 28.1 24.6 16.4 49 7.3 SE 30 44 16 24 1015.5 1015.3 0.0
09/03:30pm 28.0 25.2 15.3 46 7.7 SE 24 39 13 21 1015.6 1015.4 0.0
09/03:00pm 28.7 26.3 16.3 47 7.7 SE 24 41 13 22 1015.8 1015.7 0.0
09/02:30pm 28.6 27.0 17.5 51 7.0 SE 22 41 12 22 1015.7 1015.5 0.0
09/02:00pm 28.2 26.3 17.7 53 6.6 SE 24 35 13 19 1016.0 1015.9 0.0
09/01:30pm 27.9 26.0 18.6 57 6.0 SE 26 43 14 23 1016.2 1016.1 0.0
09/01:00pm 27.8 25.7 16.1 49 7.2 SSE 22 33 12 18 1016.3 1016.2 0.0
09/12:30pm 28.3 25.6 17.5 52 6.8 SE 28 39 15 21 1016.4 1016.3 0.0
09/12:00pm 26.8 25.5 17.3 56 5.9 SSE 20 33 11 18 1016.8 1016.7 0.0
09/11:30am 25.7 24.1 18.4 64 4.6 SE 24 41 13 22 1017.0 1016.9 0.0
09/11:00am 26.1 26.1 19.7 68 4.1 SSE 19 28 10 15 1017.2 1017.1 0.0
09/10:30am 25.5 26.2 19.6 70 3.8 SSE 15 22 8 12 1017.4 1017.3 0.0
09/10:00am 25.4 25.5 19.1 68 4.0 SSE 17 26 9 14 1017.3 1017.2 0.0
09/09:30am 23.7 24.1 18.1 71 3.5 SSE 13 19 7 10 1017.3 1017.2 0.0
09/09:00am 24.1 23.5 18.5 71 3.5 S 19 26 10 14 1017.2 1017.1 0.8
09/08:30am 22.9 22.8 18.7 77 2.7 SSW 17 24 9 13 1017.0 1016.9 0.8
09/08:00am 21.8 22.4 18.6 82 2.0 SSW 13 20 7 11 1016.8 1016.7 0.8
09/07:30am 20.1 20.7 17.7 86 1.5 SSW 11 15 6 8 1016.4 1016.3 0.8
09/07:00am 20.1 20.5 17.3 84 1.7 SSW 11 15 6 8 1016.0 1015.9 0.4
09/06:30am 19.6 20.3 17.0 85 1.6 SSW 9 13 5 7 1015.7 1015.5 0.4
09/06:00am 19.3 20.2 16.5 84 1.7 SSW 7 9 4 5 1015.4 1015.2 0.2
09/05:30am 20.4 21.1 17.0 81 2.1 SSW 9 15 5 8 1015.2 1015.0 0.2
09/05:00am 20.5 21.4 17.5 83 1.8 SSW 9 13 5 7 1015.0 1014.8 0.2
09/04:30am 20.6 21.2 17.6 83 1.8 SW 11 19 6 10 1015.0 1014.8 0.2
09/04:00am 20.5 21.6 17.9 85 1.6 SSW 9 13 5 7 1015.0 1014.8 0.2
09/03:30am 20.8 21.7 17.6 82 2.0 SW 9 15 5 8 1015.0 1014.8 0.2
09/03:00am 20.9 21.5 17.7 82 2.0 SW 11 17 6 9 1015.2 1015.0 0.2
09/02:30am 20.5 21.3 17.3 82 2.0 SW 9 11 5 6 1015.4 1015.2 0.2
09/02:00am 20.7 21.6 17.5 82 2.0 SW 9 13 5 7 1015.6 1015.4 0.2
09/01:30am 20.3 21.2 17.5 84 1.7 SW 9 13 5 7 1016.0 1015.9 0.2
09/01:00am 20.8 22.2 17.8 83 1.9 SW 7 9 4 5 1016.4 1016.3 0.2
09/12:30am 21.1 22.1 17.7 81 2.1 SW 9 15 5 8 1016.6 1016.5 0.0
09/12:00am 21.0 22.1 18.0 83 1.9 SW 9 11 5 6 1016.8 1016.7 0.0
 
Date/Time
EDT
Temp
°C
App
Temp
°C
Dew
Point
Rel
Hum
%
Delta-T
°C
Wind Press
QNH
hPa
Press
MSL
hPa
Rain
since 9 am
mm
Dir
 
Spd
km/h
Gust
km/h
Spd
kts
Gust
kts
08/11:30pm 19.8 21.1 17.6 87 1.3 WSW 7 9 4 5 1017.1 1017.0 0.0
08/11:00pm 19.4 20.4 16.4 83 1.8 WSW 6 7 3 4 1017.3 1017.2 0.0
08/10:30pm 20.4 21.5 17.0 81 2.1 SSW 7 9 4 5 1017.2 1017.1 0.0
08/10:00pm 21.1 22.4 17.5 80 2.2 S 7 11 4 6 1017.1 1017.0 0.0
08/09:30pm 21.2 22.6 17.4 79 2.3 S 6 9 3 5 1016.8 1016.7 0.0
08/09:00pm 21.3 22.5 17.3 78 2.5 S 7 9 4 5 1016.4 1016.3 0.0
08/08:30pm 21.7 22.8 17.1 75 2.8 SE 7 11 4 6 1015.9 1015.8 0.0
08/08:00pm 22.6 22.7 17.5 73 3.2 SE 13 20 7 11 1015.5 1015.3 0.0
08/07:30pm 23.4 22.8 17.6 70 3.6 SE 17 22 9 12 1015.1 1014.9 0.0
08/07:00pm 24.1 23.5 17.6 67 4.0 SE 17 24 9 13 1014.7 1014.5 0.0
08/06:30pm 25.0 23.8 17.5 63 4.7 SE 20 32 11 17 1014.3 1014.1 0.0
08/06:00pm 26.1 24.8 17.2 58 5.6 SE 20 32 11 17 1014.1 1013.9 0.0
08/05:30pm 26.9 24.5 17.4 56 6.0 SE 26 37 14 20 1014.0 1013.8 0.0
08/05:00pm 27.2 24.6 17.7 56 6.0 ESE 28 39 15 21 1014.0 1013.8 0.0
08/04:30pm 27.3 25.1 17.8 56 6.0 ESE 26 35 14 19 1014.0 1013.8 0.0
08/04:00pm 28.3 25.6 18.4 55 6.3 ESE 30 43 16 23 1014.1 1013.9 0.0
08/03:30pm 28.5 26.6 17.7 52 6.8 ESE 24 33 13 18 1014.0 1013.8 0.0
08/03:00pm 29.4 28.4 18.8 53 6.8 SE 22 32 12 17 1014.2 1014.0 0.0
08/02:30pm 29.0 28.1 18.1 51 7.0 SE 20 32 11 17 1014.5 1014.3 0.0
08/02:00pm 27.1 25.3 16.1 51 6.8 SE 20 32 11 17 1014.9 1014.7 0.0
08/01:30pm 28.6 27.1 16.8 48 7.4 ESE 20 30 11 16 1015.0 1014.8 0.0
08/01:00pm 27.0 27.0 17.2 55 6.1 SE 13 22 7 12 1015.5 1015.3 0.0
08/12:30pm 28.4 28.6 18.5 55 6.3 SSE 15 22 8 12 1015.8 1015.7 0.0
08/12:00pm 26.3 25.5 16.0 53 6.3 SSE 15 24 8 13 1016.3 1016.2 0.0
08/11:30am 27.7 26.9 18.1 56 6.1 SE 19 28 10 15 1016.4 1016.3 0.0
08/11:00am 27.1 26.1 17.6 56 6.0 S 19 28 10 15 1016.6 1016.5 0.0
08/10:30am 26.5 26.7 17.6 58 5.6 SSE 13 28 7 15 1016.7 1016.6 0.0
08/10:00am 25.2 23.8 16.6 59 5.3 S 19 26 10 14 1016.7 1016.6 0.0
08/09:30am 23.6 23.2 16.1 62 4.6 SSW 13 20 7 11 1016.6 1016.5 0.0
08/09:00am 22.6 22.1 15.9 66 4.0 SSW 13 20 7 11 1016.5 1016.4 0.0
08/08:30am 21.7 22.0 16.0 70 3.4 SSW 9 13 5 7 1016.6 1016.5 0.0
08/08:00am 20.8 20.8 16.2 75 2.8 SW 11 15 6 8 1016.3 1016.2 0.0
08/07:30am 19.2 19.7 16.6 85 1.6 SW 9 11 5 6 1016.0 1015.9 0.0
08/07:00am 16.1 16.6 15.0 93 0.6 N 6 7 3 4 1015.8 1015.7 0.0
08/06:30am 15.3 16.1 13.8 91 0.8 SW 2 6 1 3 1015.6 1015.4 0.0
08/06:00am 15.7 17.0 14.1 90 0.9 CALM 0 0 0 0 1015.5 1015.3 0.0
08/05:30am 16.1 16.4 14.5 90 0.9 NNW 6 7 3 4 1015.4 1015.2 0.0
08/05:00am 16.3 16.4 14.0 86 1.3 WNW 6 6 3 3 1015.3 1015.1 0.0
08/04:30am 17.8 17.8 15.1 84 1.6 SW 9 11 5 6 1015.2 1015.0 0.0
08/04:00am 18.8 19.0 15.7 82 1.8 SSW 9 11 5 6 1015.4 1015.2 0.0
08/03:30am 18.6 18.9 16.0 85 1.5 SSW 9 11 5 6 1015.4 1015.2 0.0
08/03:00am 18.3 18.6 15.0 81 1.9 SSW 7 9 4 5 1015.5 1015.3 0.0
08/02:30am 19.1 19.4 16.0 82 1.8 SW 9 13 5 7 1015.7 1015.5 0.0
08/02:00am 19.2 19.6 16.2 83 1.8 SW 9 11 5 6 1015.9 1015.8 0.0
08/01:30am 19.4 19.8 16.4 83 1.8 SW 9 9 5 5 1016.3 1016.2 0.0
08/01:00am 19.3 19.7 16.3 83 1.8 SW 9 11 5 6 1016.5 1016.4 0.0
08/12:30am 19.9 20.9 16.9 83 1.8 SW 7 11 4 6 1016.7 1016.6 0.0
08/12:00am 19.9 20.7 16.3 80 2.2 SW 7 9 4 5 1016.7 1016.6 0.0
 
Date/Time
EDT
Temp
°C
App
Temp
°C
Dew
Point
Rel
Hum
%
Delta-T
°C
Wind Press
QNH
hPa
Press
MSL
hPa
Rain
since 9 am
mm
Dir
 
Spd
km/h
Gust
km/h
Spd
kts
Gust
kts
07/11:30pm 20.5 21.4 16.7 79 2.3 SSW 7 11 4 6 1016.7 1016.6 0.0
07/11:00pm 21.0 22.1 17.2 79 2.3 SSW 7 9 4 5 1016.7 1016.6 0.0
07/10:30pm 20.4 21.8 17.8 85 1.6 SSW 7 9 4 5 1016.7 1016.6 0.0
07/10:00pm 20.8 22.2 17.4 81 2.1 SSW 6 7 3 4 1016.5 1016.4 0.0
07/09:30pm 20.8 22.1 17.2 80 2.2 S 6 7 3 4 1016.2 1016.1 0.0
07/09:00pm 20.6 21.6 16.4 77 2.5 SSE 6 9 3 5 1016.1 1016.0 0.0
07/08:30pm 21.5 21.9 16.2 72 3.2 SE 9 11 5 6 1015.8 1015.7 0.0
07/08:00pm 22.2 22.3 16.5 70 3.5 SE 11 15 6 8 1015.4 1015.2 0.0
07/07:30pm 23.2 22.5 16.3 65 4.2 SE 15 20 8 11 1015.1 1014.9 0.0
07/07:00pm 23.6 22.9 16.4 64 4.4 SE 15 19 8 10 1014.7 1014.5 0.0
07/06:30pm 24.2 22.8 16.5 62 4.7 SE 19 26 10 14 1014.4 1014.2 0.0
07/06:00pm 25.5 24.1 16.9 59 5.3 SE 20 30 11 16 1013.9 1013.7 0.0
07/05:30pm 26.5 25.3 17.0 56 5.9 SE 19 30 10 16 1013.7 1013.5 0.0
07/05:00pm 25.7 24.9 17.1 59 5.3 SE 17 28 9 15 1013.5 1013.4 0.0
07/04:30pm 26.1 25.3 17.2 58 5.6 SE 17 26 9 14 1013.5 1013.4 0.0
07/04:00pm 26.4 25.4 17.5 58 5.6 SE 19 26 10 14 1013.5 1013.4 0.0
07/03:30pm 26.3 25.8 18.7 63 4.9 SE 19 28 10 15 1013.8 1013.6 0.0
07/03:00pm 26.1 25.8 18.2 61 5.0 ESE 17 24 9 13 1014.1 1013.9 0.0
07/02:30pm 25.3 24.5 18.0 64 4.6 SE 19 28 10 15 1014.3 1014.1 0.0
07/02:00pm 24.8 23.6 17.5 64 4.6 SE 20 26 11 14 1014.4 1014.2 0.0
07/01:30pm 23.7 25.4 19.4 77 2.8 SE 9 13 5 7 1014.4 1014.2 0.0
07/01:00pm 25.3 25.5 17.7 62 4.8 SSE 13 20 7 11 1014.5 1014.3 0.0
07/12:30pm 25.1 25.5 18.1 65 4.4 S 13 17 7 9 1015.0 1014.8 0.0
07/12:00pm 24.1 24.2 17.4 66 4.2 SSW 13 17 7 9 1015.2 1015.0 0.0
07/11:30am 22.8 22.7 17.0 70 3.6 SSW 13 20 7 11 1015.7 1015.5 0.0
07/11:00am 22.5 22.1 16.3 68 3.8 S 13 19 7 10 1015.8 1015.7 0.0
07/10:30am 22.1 21.7 16.1 69 3.6 S 13 19 7 10 1015.7 1015.5 0.0
07/10:00am 21.7 22.7 16.9 74 2.9 SW 7 11 4 6 1015.8 1015.7 0.0
07/09:30am 21.4 21.8 16.4 73 3.0 SSW 9 13 5 7 1015.4 1015.2 0.0
07/09:00am 21.6 22.4 17.4 77 2.6 S 9 15 5 8 1015.2 1015.0 14.4
07/08:30am 20.5 21.5 16.9 80 2.2 SSW 7 13 4 7 1015.3 1015.1 14.4
07/08:00am 20.4 21.7 17.0 81 2.1 SW 6 7 3 4 1015.2 1015.0 14.4
07/07:30am 20.1 22.7 17.5 85 1.6 CALM 0 0 0 0 1015.0 1014.8 14.4

Other Formats:

Comma delimited format used in spreadsheet applications
http://www.bom.gov.au/fwo/IDN60801/IDN60801.94573.axf

JavaScript Object Notation format (JSON) in row-major order
http://www.bom.gov.au/fwo/IDN60801/IDN60801.94573.json